Time;durP1;ratioP1;P1;durP2;ratioP2;P2;SDS_P1;SDS_P2;PMS_P1;PMS_P2;Temp;Humidity;BMP_temperature;BMP_pressure;BME280_temperature;BME280_humidity;BME280_pressure;Samples;Min_cycle;Max_cycle;Signal;HPM_P1;HPM_P2
2021/03/10 00:00:42;;;;;;;101.28;38.97;;;;;;;4.09;100.00;101910.50;5146401;28;20038;-84
2021/03/10 00:03:13;;;;;;;88.20;34.05;;;;;;;4.11;100.00;101913.03;5147079;28;20535;-84
2021/03/10 00:05:43;;;;;;;99.10;37.35;;;;;;;4.12;100.00;101909.47;5145390;28;20510;-84
2021/03/10 00:08:13;;;;;;;97.82;36.50;;;;;;;4.14;100.00;101913.72;5143615;28;20027;-84
2021/03/10 00:10:45;;;;;;;119.25;42.28;;;;;;;4.15;100.00;101917.22;5158664;28;20033;-83
2021/03/10 00:13:15;;;;;;;116.18;41.28;;;;;;;4.18;100.00;101914.38;5147760;28;20030;-84
2021/03/10 00:15:46;;;;;;;106.43;37.83;;;;;;;4.24;100.00;101919.28;5148650;28;20023;-84
2021/03/10 00:18:16;;;;;;;105.40;37.65;;;;;;;4.27;100.00;101907.63;5149376;28;20406;-84
2021/03/10 00:20:46;;;;;;;113.97;39.72;;;;;;;4.30;100.00;101907.41;5148262;28;20031;-84
2021/03/10 00:23:17;;;;;;;119.47;40.47;;;;;;;4.29;100.00;101911.88;5149103;28;20026;-83
2021/03/10 00:25:47;;;;;;;114.93;40.42;;;;;;;4.36;100.00;101909.66;5147960;28;20553;-84
2021/03/10 00:28:18;;;;;;;102.20;38.15;;;;;;;4.37;100.00;101906.91;5161661;28;20045;-84
2021/03/10 00:30:48;;;;;;;113.97;40.28;;;;;;;4.38;100.00;101913.94;5148469;28;20510;-83
2021/03/10 00:33:19;;;;;;;106.15;38.33;;;;;;;4.41;100.00;101905.75;5147760;28;20015;-83
2021/03/10 00:35:49;;;;;;;114.18;40.25;;;;;;;4.41;100.00;101902.22;5148558;28;20027;-84
2021/03/10 00:38:21;;;;;;;109.25;40.55;;;;;;;4.41;100.00;101902.22;5149313;28;20073;-84
2021/03/10 00:40:51;;;;;;;118.28;41.95;;;;;;;4.43;100.00;101903.00;5142912;28;20046;-83
2021/03/10 00:43:21;;;;;;;119.28;41.58;;;;;;;4.42;100.00;101903.97;5131719;28;20058;-84
2021/03/10 00:45:52;;;;;;;110.15;41.92;;;;;;;4.41;100.00;101903.09;5147813;28;20252;-84
2021/03/10 00:48:22;;;;;;;119.70;43.10;;;;;;;4.42;100.00;101903.97;5146917;28;20054;-83
2021/03/10 00:50:53;;;;;;;110.97;40.80;;;;;;;4.43;100.00;101910.13;5142304;28;20479;-83
2021/03/10 00:53:23;;;;;;;113.07;41.95;;;;;;;4.43;100.00;101899.50;5146961;28;20046;-84
2021/03/10 00:55:53;;;;;;;134.90;45.60;;;;;;;4.45;100.00;101905.56;5143026;28;20031;-84
2021/03/10 00:58:24;;;;;;;126.68;42.25;;;;;;;4.45;100.00;101905.56;5146963;28;20046;-84
2021/03/10 01:00:54;;;;;;;109.95;41.13;;;;;;;4.40;100.00;101897.88;5143667;28;20027;-84
2021/03/10 01:03:25;;;;;;;116.22;42.60;;;;;;;4.35;100.00;101900.84;5147271;28;20031;-84
2021/03/10 01:05:55;;;;;;;139.57;47.65;;;;;;;4.34;100.00;101892.97;5147906;28;20045;-84
2021/03/10 01:08:26;;;;;;;134.32;45.35;;;;;;;4.29;100.00;101903.06;5147339;28;20023;-84
2021/03/10 01:10:56;;;;;;;125.60;44.33;;;;;;;4.26;100.00;101901.44;5146881;28;20120;-84
2021/03/10 01:13:27;;;;;;;147.18;48.88;;;;;;;4.22;100.00;101899.06;5147034;28;20411;-83
2021/03/10 01:15:57;;;;;;;143.65;51.30;;;;;;;4.16;100.00;101900.31;5147784;28;20474;-83
2021/03/10 01:18:27;;;;;;;124.93;44.00;;;;;;;4.06;100.00;101902.72;5146157;28;20085;-83
2021/03/10 01:20:58;;;;;;;128.23;46.13;;;;;;;3.96;100.00;101895.44;5146446;28;20037;-84
2021/03/10 01:23:28;;;;;;;121.10;43.72;;;;;;;3.90;100.00;101897.53;5147246;28;20114;-84
2021/03/10 01:25:59;;;;;;;123.25;42.80;;;;;;;3.83;100.00;101898.03;5146243;28;20114;-84
2021/03/10 01:28:29;;;;;;;117.63;43.10;;;;;;;3.72;100.00;101889.91;5159585;28;20037;-84
2021/03/10 01:31:00;;;;;;;113.05;41.75;;;;;;;3.60;100.00;101888.84;5146754;28;20090;-84
2021/03/10 01:33:30;;;;;;;128.20;45.20;;;;;;;3.50;100.00;101885.06;5146210;28;20066;-84
2021/03/10 01:36:01;;;;;;;126.35;42.83;;;;;;;3.34;100.00;101888.66;5148039;28;20030;-84
2021/03/10 01:38:31;;;;;;;121.95;42.33;;;;;;;3.25;100.00;101881.28;5146914;28;20023;-83
2021/03/10 01:41:03;;;;;;;129.98;46.00;;;;;;;3.19;100.00;101881.66;5141851;28;20059;-84
2021/03/10 01:43:34;;;;;;;138.02;48.67;;;;;;;3.10;100.00;101883.06;5160750;28;20022;-85
2021/03/10 01:46:04;;;;;;;127.47;45.75;;;;;;;3.05;100.00;101889.59;5147906;28;20038;-84
2021/03/10 01:48:35;;;;;;;147.38;49.78;;;;;;;2.98;100.00;101894.41;5142716;28;20393;-83
2021/03/10 01:51:06;;;;;;;132.48;45.42;;;;;;;2.91;100.00;101882.44;5142469;28;20023;-83
2021/03/10 01:53:37;;;;;;;110.25;38.60;;;;;;;2.83;100.00;101882.91;5142971;28;20031;-83
2021/03/10 01:56:07;;;;;;;122.85;43.63;;;;;;;2.78;100.00;101877.03;5142717;28;20070;-84
2021/03/10 01:58:38;;;;;;;128.75;44.67;;;;;;;2.73;100.00;101884.41;5142641;28;20038;-84
2021/03/10 02:01:09;;;;;;;125.13;41.20;;;;;;;2.69;100.00;101877.59;5142021;28;20019;-83
2021/03/10 02:03:39;;;;;;;119.47;42.33;;;;;;;2.65;100.00;101881.34;5142843;28;20034;-83
2021/03/10 02:06:16;;;;;;;106.20;38.30;;;;;;;2.58;100.00;101882.66;5141231;28;20114;-84
2021/03/10 02:08:54;;;;;;;88.90;33.83;;;;;;;2.52;100.00;101869.78;5145862;28;20085;-84
2021/03/10 02:11:32;;;;;;;95.75;34.60;;;;;;;2.43;100.00;101854.41;5141708;28;20502;-84
2021/03/10 02:14:24;;;;;;;103.15;34.67;;;;;;;2.33;100.00;101859.41;5142401;28;20039;-84
2021/03/10 02:16:59;;;;;;;255.80;45.50;;;;;;;2.25;100.00;101853.66;5146692;28;20109;-83
2021/03/10 02:19:49;;;;;;;198.60;44.15;;;;;;;2.16;100.00;101851.53;5147867;28;20025;-84
2021/03/10 02:22:57;;;;;;;168.30;46.05;;;;;;;2.11;100.00;101851.84;5147171;28;20054;-83
2021/03/10 02:25:52;;;;;;;188.95;44.53;;;;;;;2.02;100.00;101847.91;5163241;28;20042;-84
2021/03/10 02:28:23;;;;;;;252.95;49.90;;;;;;;1.97;100.00;101846.47;5146683;28;20034;-83
2021/03/10 02:30:55;;;;;;;149.50;47.95;;;;;;;1.94;100.00;101844.81;5146685;28;20035;-83
2021/03/10 02:33:29;;;;;;;153.25;44.42;;;;;;;1.89;100.00;101848.69;5146010;28;20018;-84
2021/03/10 02:36:04;;;;;;;;;;;;;;;1.83;100.00;101849.88;5143112;28;20027;-84
2021/03/10 02:38:40;;;;;;;133.75;44.55;;;;;;;1.81;100.00;101852.63;5146665;28;19941;-84
2021/03/10 02:41:12;;;;;;;128.65;43.22;;;;;;;1.75;100.00;101845.00;5148351;28;20027;-83
2021/03/10 02:43:44;;;;;;;141.90;46.55;;;;;;;1.77;100.00;101850.22;5148713;28;20027;-84
2021/03/10 02:46:16;;;;;;;142.93;46.45;;;;;;;1.79;100.00;101853.63;5149430;28;20090;-84
2021/03/10 02:48:47;;;;;;;157.80;51.00;;;;;;;1.83;100.00;101857.81;5149857;28;20183;-84
2021/03/10 02:51:19;;;;;;;188.25;57.10;;;;;;;1.91;100.00;101850.31;5147926;28;20033;-84
2021/03/10 02:53:52;;;;;;;185.43;55.33;;;;;;;1.95;100.00;101838.59;5149114;28;20033;-84
2021/03/10 02:56:22;;;;;;;174.65;53.28;;;;;;;1.96;100.00;101840.31;5149064;28;20022;-84
2021/03/10 02:58:54;;;;;;;180.25;53.58;;;;;;;1.96;100.00;101844.75;5149697;28;20033;-84
2021/03/10 03:01:25;;;;;;;155.63;48.50;;;;;;;1.92;100.00;101840.56;5144461;28;20035;-84
2021/03/10 03:04:03;;;;;;;160.48;47.53;;;;;;;1.93;100.00;101837.84;5143416;28;20039;-84
2021/03/10 03:06:33;;;;;;;180.05;54.05;;;;;;;1.94;100.00;101838.69;5149741;28;20061;-84
2021/03/10 03:09:06;;;;;;;196.63;59.13;;;;;;;1.98;100.00;101837.56;5147441;28;20062;-83
2021/03/10 03:11:37;;;;;;;202.93;56.33;;;;;;;2.02;100.00;101832.03;5148903;28;20034;-84
2021/03/10 03:14:07;;;;;;;150.40;50.08;;;;;;;2.00;100.00;101825.09;5147891;28;20030;-84
2021/03/10 03:16:41;;;;;;;181.80;53.85;;;;;;;1.99;100.00;101826.03;5147682;28;20039;-84
2021/03/10 03:19:11;;;;;;;177.63;53.42;;;;;;;1.98;100.00;101822.56;5148717;28;20011;-83
2021/03/10 03:21:43;;;;;;;185.30;54.20;;;;;;;1.98;100.00;101829.63;5145188;28;20041;-84
2021/03/10 03:24:17;;;;;;;175.60;51.47;;;;;;;1.96;100.00;101828.88;5150109;28;20035;-84
2021/03/10 03:26:48;;;;;;;180.40;54.22;;;;;;;1.92;100.00;101824.69;5149869;28;20046;-84
2021/03/10 03:29:19;;;;;;;194.90;55.78;;;;;;;1.97;100.00;101827.94;5160036;28;20074;-84
2021/03/10 03:31:50;;;;;;;186.13;55.40;;;;;;;1.95;100.00;101817.41;5149943;28;20058;-83
2021/03/10 03:34:22;;;;;;;183.00;53.97;;;;;;;1.94;100.00;101825.44;5144817;28;20039;-84
2021/03/10 03:36:53;;;;;;;182.68;54.10;;;;;;;1.93;100.00;101807.88;5146927;28;20104;-84
2021/03/10 03:39:24;;;;;;;192.40;52.83;;;;;;;1.90;100.00;101808.88;5148571;28;20035;-85
2021/03/10 03:41:55;;;;;;;183.57;51.83;;;;;;;1.91;100.00;101817.69;5149032;28;20034;-84
2021/03/10 03:44:25;;;;;;;209.15;59.95;;;;;;;1.91;100.00;101812.38;5148071;28;20018;-83
2021/03/10 03:46:56;;;;;;;206.85;60.72;;;;;;;1.95;100.00;101812.13;5149177;28;20054;-84
2021/03/10 03:49:26;;;;;;;189.93;54.53;;;;;;;1.92;100.00;101814.13;5149579;28;20117;-85
2021/03/10 03:51:57;;;;;;;176.05;54.35;;;;;;;1.90;100.00;101814.19;5148256;28;20038;-85
2021/03/10 03:54:27;;;;;;;200.60;58.60;;;;;;;1.91;100.00;101813.25;5148115;28;20447;-83
2021/03/10 03:56:58;;;;;;;190.27;55.20;;;;;;;1.92;100.00;101801.72;5149049;28;20517;-84
2021/03/10 03:59:28;;;;;;;168.18;51.20;;;;;;;1.91;100.00;101815.91;5148815;28;20443;-84
2021/03/10 04:01:59;;;;;;;178.80;53.90;;;;;;;1.88;100.00;101809.94;5147660;28;20414;-84
2021/03/10 04:04:29;;;;;;;180.57;53.42;;;;;;;1.85;100.00;101810.09;5148351;28;20027;-83
2021/03/10 04:07:00;;;;;;;187.90;56.10;;;;;;;1.87;100.00;101817.03;5149324;28;20494;-84
2021/03/10 04:09:31;;;;;;;172.38;53.15;;;;;;;1.88;100.00;101810.78;5148450;28;20089;-85
2021/03/10 04:12:02;;;;;;;164.15;50.30;;;;;;;1.90;100.00;101813.34;5148577;28;20039;-84
2021/03/10 04:14:32;;;;;;;156.00;47.00;;;;;;;1.87;100.00;101814.38;5140880;28;20042;-84
2021/03/10 04:17:03;;;;;;;146.70;47.20;;;;;;;1.87;100.00;101818.81;5144614;28;20081;-84
2021/03/10 04:19:33;;;;;;;176.02;50.97;;;;;;;1.88;100.00;101815.22;5148610;28;20062;-84
2021/03/10 04:22:04;;;;;;;171.32;51.10;;;;;;;1.94;100.00;101820.16;5145048;28;20026;-84
2021/03/10 04:24:34;;;;;;;161.50;48.70;;;;;;;1.97;100.00;101815.56;5148515;28;20023;-83
2021/03/10 04:27:05;;;;;;;188.95;50.75;;;;;;;1.99;100.00;101815.47;5151698;28;20030;-84
2021/03/10 04:29:35;;;;;;;174.80;50.58;;;;;;;2.00;100.00;101819.81;5155790;28;20045;-84
2021/03/10 04:32:06;;;;;;;161.60;50.22;;;;;;;2.00;100.00;101814.50;5142751;28;20723;-84
2021/03/10 04:34:37;;;;;;;166.77;50.13;;;;;;;2.02;100.00;101815.28;5155274;28;20058;-84
2021/03/10 04:37:07;;;;;;;146.90;45.92;;;;;;;2.01;100.00;101824.19;5147047;28;20031;-84
2021/03/10 04:39:38;;;;;;;151.45;44.92;;;;;;;1.99;100.00;101821.59;5147539;28;20023;-84
2021/03/10 04:42:09;;;;;;;144.52;45.50;;;;;;;1.99;100.00;101826.91;5162437;28;20031;-83
2021/03/10 04:44:39;;;;;;;144.95;45.55;;;;;;;1.98;100.00;101822.56;5148033;28;20521;-84
2021/03/10 04:47:10;;;;;;;149.10;43.85;;;;;;;1.96;100.00;101818.31;5146954;28;20034;-84
2021/03/10 04:49:40;;;;;;;145.05;44.90;;;;;;;1.94;100.00;101821.00;5145158;28;20054;-84
2021/03/10 04:52:11;;;;;;;158.95;46.53;;;;;;;1.93;100.00;101823.75;5144268;28;20082;-84
2021/03/10 04:54:41;;;;;;;140.40;44.80;;;;;;;1.91;100.00;101830.91;5144346;28;20027;-84
2021/03/10 04:57:11;;;;;;;133.77;40.80;;;;;;;1.89;100.00;101836.28;5144862;28;20034;-84
2021/03/10 04:59:42;;;;;;;135.15;42.47;;;;;;;1.86;100.00;101827.66;5143722;28;20031;-84
2021/03/10 05:02:12;;;;;;;120.85;40.53;;;;;;;1.79;100.00;101830.66;5144380;28;20026;-84
2021/03/10 05:04:43;;;;;;;125.25;38.70;;;;;;;1.74;100.00;101832.72;5127248;28;20065;-84
2021/03/10 05:07:13;;;;;;;109.13;37.30;;;;;;;1.68;100.00;101829.56;5144239;28;20053;-83
2021/03/10 05:09:44;;;;;;;120.20;37.03;;;;;;;1.63;100.00;101821.88;5144396;28;20122;-84
2021/03/10 05:12:14;;;;;;;129.73;41.45;;;;;;;1.61;100.00;101826.41;5144081;28;20030;-85
2021/03/10 05:14:44;;;;;;;122.20;39.72;;;;;;;1.60;100.00;101827.31;5144865;28;20023;-84
2021/03/10 05:17:15;;;;;;;133.18;43.38;;;;;;;1.61;100.00;101820.25;5144801;28;20034;-84
2021/03/10 05:19:45;;;;;;;117.65;39.60;;;;;;;1.61;100.00;101810.53;5144632;28;20208;-84
2021/03/10 05:22:16;;;;;;;127.78;39.08;;;;;;;1.58;100.00;101810.69;5144270;28;20034;-84
2021/03/10 05:24:47;;;;;;;109.70;38.85;;;;;;;1.50;100.00;101807.63;5140464;28;20119;-84
2021/03/10 05:27:17;;;;;;;106.53;35.78;;;;;;;1.45;100.00;101799.94;5148482;28;20026;-84
2021/03/10 05:29:48;;;;;;;131.18;39.85;;;;;;;1.40;100.00;101801.97;5151694;28;20031;-84
2021/03/10 05:32:18;;;;;;;115.70;38.58;;;;;;;1.44;100.00;101814.09;5143797;28;20092;-84
2021/03/10 05:34:48;;;;;;;137.02;43.00;;;;;;;1.46;100.00;101811.38;5140843;28;20034;-85
2021/03/10 05:37:19;;;;;;;119.00;40.60;;;;;;;1.49;100.00;101809.41;5145039;28;20097;-84
2021/03/10 05:39:49;;;;;;;140.43;42.75;;;;;;;1.53;100.00;101810.09;5144195;28;20026;-84
2021/03/10 05:42:20;;;;;;;150.02;44.22;;;;;;;1.57;100.00;101806.34;5148083;28;20039;-84
2021/03/10 05:44:51;;;;;;;135.52;44.50;;;;;;;1.61;100.00;101813.19;5149591;28;20470;-84
2021/03/10 05:47:21;;;;;;;157.02;46.50;;;;;;;1.65;100.00;101803.28;5149370;28;20026;-84
2021/03/10 05:49:52;;;;;;;152.48;45.78;;;;;;;1.70;100.00;101806.50;5149541;28;20026;-84
2021/03/10 05:52:23;;;;;;;135.52;41.38;;;;;;;1.74;100.00;101803.59;5144583;28;20031;-84
2021/03/10 05:54:54;;;;;;;149.55;44.38;;;;;;;1.83;100.00;101801.41;5144885;28;20043;-84
2021/03/10 05:57:25;;;;;;;148.85;43.42;;;;;;;1.87;100.00;101801.16;5142144;28;20113;-83
2021/03/10 05:59:55;;;;;;;140.20;44.53;;;;;;;1.93;100.00;101798.13;5149573;28;20110;-84
2021/03/10 06:02:26;;;;;;;155.13;46.88;;;;;;;2.00;100.00;101799.47;5146733;28;20043;-84
2021/03/10 06:04:57;;;;;;;145.07;44.45;;;;;;;2.05;100.00;101796.56;5147060;28;20037;-84
2021/03/10 06:07:27;;;;;;;150.55;46.13;;;;;;;2.11;100.00;101798.91;5146738;28;20069;-84
2021/03/10 06:10:00;;;;;;;142.82;40.88;;;;;;;2.13;100.00;101794.34;5147117;28;20031;-84
2021/03/10 06:12:44;;;;;;;141.48;44.05;;;;;;;2.20;100.00;101797.47;5162381;28;20126;-84
2021/03/10 06:15:14;;;;;;;149.63;42.53;;;;;;;2.20;100.00;101792.19;5146672;28;20081;-83
2021/03/10 06:17:47;;;;;;;146.48;43.20;;;;;;;2.21;100.00;101797.41;5147944;28;20109;-84
2021/03/10 06:20:24;;;;;;;142.75;43.25;;;;;;;2.24;100.00;101796.38;5144180;28;20045;-84
2021/03/10 06:22:55;;;;;;;135.43;42.85;;;;;;;2.25;100.00;101796.28;5163389;28;20117;-83
2021/03/10 06:25:36;;;;;;;130.15;40.67;;;;;;;2.27;100.00;101790.91;5148412;28;20037;-84
2021/03/10 06:28:06;;;;;;;130.57;40.03;;;;;;;2.26;100.00;101778.59;5155981;28;20049;-84
2021/03/10 06:30:41;;;;;;;133.25;38.72;;;;;;;2.30;100.00;101780.97;5148794;28;20086;-84
2021/03/10 06:33:21;;;;;;;127.90;39.38;;;;;;;2.33;100.00;101783.44;5147558;28;20030;-84
2021/03/10 06:35:52;;;;;;;125.93;38.25;;;;;;;2.39;100.00;101784.88;5146196;28;20042;-84
2021/03/10 06:38:22;;;;;;;141.40;41.20;;;;;;;2.42;100.00;101776.75;5146116;28;20023;-83
2021/03/10 06:40:57;;;;;;;131.32;41.50;;;;;;;2.50;100.00;101776.28;5145970;28;20030;-84
2021/03/10 06:43:36;;;;;;;134.18;39.20;;;;;;;2.53;100.00;101782.28;5146918;28;20266;-84
2021/03/10 06:46:17;;;;;;;126.15;38.95;;;;;;;2.57;100.00;101780.28;5146630;28;20066;-84
2021/03/10 06:48:55;;;;;;;117.90;37.97;;;;;;;2.63;100.00;101784.38;5146844;28;20035;-83
2021/03/10 06:51:28;;;;;;;119.25;37.95;;;;;;;2.73;100.00;101783.72;5145974;28;20042;-83
2021/03/10 06:53:59;;;;;;;126.20;38.70;;;;;;;2.77;100.00;101785.25;5146203;28;20057;-85
2021/03/10 06:57:17;;;;;;;119.88;39.30;;;;;;;2.76;100.00;101780.00;5161690;28;20458;-89
2021/03/10 07:00:00;;;;;;;120.03;38.30;;;;;;;2.81;100.00;101789.41;5130306;28;20031;-91
2021/03/10 07:02:40;;;;;;;104.65;35.53;;;;;;;2.87;100.00;101784.69;5145838;28;20038;-84
2021/03/10 07:05:11;;;;;;;118.45;37.35;;;;;;;2.91;100.00;101778.22;5146724;28;20361;-84
2021/03/10 07:07:43;;;;;;;113.88;36.92;;;;;;;2.92;100.00;101774.66;5145345;28;20034;-85
2021/03/10 07:10:14;;;;;;;116.18;35.50;;;;;;;2.98;100.00;101782.22;5128328;28;20125;-84
2021/03/10 07:12:45;;;;;;;106.72;34.80;;;;;;;3.03;100.00;101782.78;5146226;28;20117;-84
2021/03/10 07:15:16;;;;;;;108.32;36.95;;;;;;;3.08;100.00;101786.84;5161501;28;20468;-83
2021/03/10 07:17:49;;;;;;;116.22;36.78;;;;;;;3.11;100.00;101783.16;5145929;28;20035;-84
2021/03/10 07:20:21;;;;;;;121.22;36.58;;;;;;;3.14;100.00;101780.31;5146682;28;20019;-85
2021/03/10 07:23:15;;;;;;;122.68;37.50;;;;;;;3.19;100.00;101780.03;5140782;28;20034;-86
2021/03/10 07:25:48;;;;;;;122.38;37.35;;;;;;;3.23;100.00;101784.22;5146241;28;20046;-84
2021/03/10 07:28:25;;;;;;;123.28;36.90;;;;;;;3.29;100.00;101781.16;5145740;28;20077;-84
2021/03/10 07:30:56;;;;;;;120.57;36.47;;;;;;;3.29;100.00;101782.00;5145812;28;20448;-84
2021/03/10 07:33:26;;;;;;;112.28;39.15;;;;;;;3.30;100.00;101782.84;5149100;28;20101;-84
2021/03/10 07:35:59;;;;;;;111.10;35.70;;;;;;;3.35;100.00;101781.63;5148497;28;20023;-84
2021/03/10 07:38:35;;;;;;;131.95;38.05;;;;;;;3.38;100.00;101778.78;5148453;28;20042;-84
2021/03/10 07:41:09;;;;;;;123.65;36.42;;;;;;;3.40;100.00;101778.69;5148386;28;20031;-84
2021/03/10 07:43:45;;;;;;;122.68;35.45;;;;;;;3.44;100.00;101777.53;5149461;28;20473;-84
2021/03/10 07:46:26;;;;;;;107.15;35.88;;;;;;;3.51;100.00;101781.50;5150250;28;20031;-84
2021/03/10 07:48:59;;;;;;;115.97;35.35;;;;;;;3.56;100.00;101791.81;5165812;28;20038;-84
2021/03/10 07:51:35;;;;;;;123.63;35.20;;;;;;;3.60;100.00;101782.72;5150376;28;20106;-84
2021/03/10 07:54:26;;;;;;;101.40;34.38;;;;;;;3.73;100.00;101780.13;5145586;28;20035;-84
2021/03/10 07:57:05;;;;;;;116.15;34.90;;;;;;;3.74;100.00;101782.69;5145888;28;20074;-84
2021/03/10 07:59:38;;;;;;;105.65;34.25;;;;;;;3.81;100.00;101786.63;5149778;28;20030;-84
2021/03/10 08:02:09;;;;;;;105.25;32.42;;;;;;;3.85;100.00;101784.63;5145419;28;20025;-86
2021/03/10 08:04:40;;;;;;;114.22;33.25;;;;;;;3.94;100.00;101778.72;5125729;28;20122;-85
2021/03/10 08:07:20;;;;;;;100.47;31.85;;;;;;;3.98;100.00;101776.72;5114664;28;20099;-85
2021/03/10 08:09:54;;;;;;;103.90;32.50;;;;;;;4.07;100.00;101779.63;5139652;28;20027;-85
2021/03/10 08:12:38;;;;;;;101.80;31.38;;;;;;;4.12;100.00;101782.84;5141626;28;20085;-85
2021/03/10 08:15:20;;;;;;;107.97;31.55;;;;;;;4.21;100.00;101777.84;5165404;28;20441;-84
2021/03/10 08:18:03;;;;;;;98.80;29.48;;;;;;;4.26;100.00;101773.94;5164181;28;20031;-85
2021/03/10 08:20:35;;;;;;;93.50;29.48;;;;;;;4.35;100.00;101769.81;5162663;28;20031;-85
2021/03/10 08:23:06;;;;;;;95.65;29.17;;;;;;;4.39;100.00;101766.00;5147556;28;20494;-85
2021/03/10 08:25:37;;;;;;;84.38;27.73;;;;;;;4.47;100.00;101769.00;5163538;28;20026;-85
2021/03/10 08:28:10;;;;;;;80.57;27.33;;;;;;;4.55;100.00;101766.66;5147415;28;20070;-85
2021/03/10 08:30:44;;;;;;;83.97;29.35;;;;;;;4.66;100.00;101764.09;5148527;28;20038;-86
2021/03/10 08:33:15;;;;;;;85.10;25.55;;;;;;;4.75;100.00;101770.59;5147316;28;20026;-85
2021/03/10 08:35:52;;;;;;;80.40;26.13;;;;;;;4.83;100.00;101757.63;5142198;28;20026;-86
2021/03/10 08:38:31;;;;;;;71.32;26.25;;;;;;;4.90;100.00;101748.25;5141017;28;20110;-85
2021/03/10 08:41:04;;;;;;;58.35;23.30;;;;;;;5.02;100.00;101751.88;5142789;28;20383;-85
2021/03/10 08:43:36;;;;;;;59.40;22.67;;;;;;;5.02;100.00;101751.00;5146271;28;20050;-86
2021/03/10 08:46:07;;;;;;;54.65;20.70;;;;;;;5.11;100.00;101755.69;5148361;28;20030;-85
2021/03/10 08:48:37;;;;;;;54.67;20.50;;;;;;;5.14;100.00;101750.16;5148355;28;20049;-85
2021/03/10 08:51:08;;;;;;;60.40;22.35;;;;;;;5.20;100.00;101744.38;5148630;28;20027;-85
2021/03/10 08:53:41;;;;;;;51.90;21.05;;;;;;;5.32;100.00;101734.66;5149350;28;20054;-85
2021/03/10 08:56:12;;;;;;;49.22;20.48;;;;;;;5.44;100.00;101752.41;5147839;28;20429;-85
2021/03/10 08:58:52;;;;;;;44.05;18.95;;;;;;;5.59;100.00;101751.31;5146735;28;20500;-84
2021/03/10 09:01:25;;;;;;;48.58;20.30;;;;;;;5.69;100.00;101751.50;5144810;28;20042;-86
2021/03/10 09:03:55;;;;;;;46.83;17.92;;;;;;;5.81;100.00;101745.25;5140362;28;20549;-85
2021/03/10 09:06:28;;;;;;;40.65;17.90;;;;;;;5.84;100.00;101746.84;5143977;28;20114;-86
2021/03/10 09:09:01;;;;;;;39.08;16.40;;;;;;;5.85;100.00;101743.22;5138854;28;20358;-86
2021/03/10 09:11:32;;;;;;;34.63;15.70;;;;;;;6.02;100.00;101741.97;5140896;28;20041;-86
2021/03/10 09:14:03;;;;;;;37.17;15.10;;;;;;;6.13;100.00;101747.38;5141203;28;20035;-86
2021/03/10 09:16:34;;;;;;;36.22;16.27;;;;;;;6.20;100.00;101735.28;5124651;28;20042;-88
2021/03/10 09:19:29;;;;;;;33.92;14.48;;;;;;;6.25;100.00;101727.78;5142383;28;20018;-87
2021/03/10 09:22:19;;;;;;;33.28;14.30;;;;;;;6.35;100.00;101733.25;5157556;28;20482;-87
2021/03/10 09:25:02;;;;;;;33.58;14.50;;;;;;;6.45;100.00;101737.75;5141798;28;20102;-87
2021/03/10 09:31:32;;;;;;;26.80;13.15;;;;;;;6.52;100.00;101739.94;5074902;28;20462;-86
2021/03/10 09:34:13;;;;;;;31.58;13.20;;;;;;;6.51;100.00;101720.44;5128230;28;20501;-86
2021/03/10 09:36:46;;;;;;;29.50;12.80;;;;;;;6.61;100.00;101721.44;5141225;28;20093;-86
2021/03/10 09:39:16;;;;;;;25.60;12.30;;;;;;;6.66;100.00;101716.59;5142755;28;20494;-84
2021/03/10 09:41:55;;;;;;;25.73;10.75;;;;;;;6.74;100.00;101703.50;5143143;28;20121;-88
2021/03/10 09:44:42;;;;;;;25.70;11.95;;;;;;;6.87;100.00;101703.38;5137491;28;20023;-86
2021/03/10 09:47:16;;;;;;;25.83;12.55;;;;;;;7.02;100.00;101711.97;5131288;28;20042;-87
2021/03/10 09:49:49;;;;;;;25.63;12.15;;;;;;;7.20;100.00;101704.34;5140473;28;20066;-86
2021/03/10 09:52:37;;;;;;;25.95;11.15;;;;;;;7.32;100.00;101705.16;5142364;28;20117;-87
2021/03/10 09:55:10;;;;;;;26.08;12.10;;;;;;;7.41;100.00;101697.25;5157652;28;20038;-86
2021/03/10 09:57:40;;;;;;;29.77;11.63;;;;;;;7.61;100.00;101695.63;5141950;28;20023;-86
2021/03/10 10:00:21;;;;;;;26.98;12.10;;;;;;;7.85;100.00;101689.22;5141545;28;20053;-85
2021/03/10 10:03:12;;;;;;;22.98;10.60;;;;;;;8.00;100.00;101683.44;5141598;28;20033;-86
2021/03/10 10:06:12;;;;;;;22.98;10.02;;;;;;;8.13;100.00;101679.72;5124949;28;20079;-86
2021/03/10 10:08:46;;;;;;;22.35;10.00;;;;;;;8.16;100.00;101683.00;5135801;28;20028;-87
2021/03/10 10:11:39;;;;;;;19.73;9.75;;;;;;;8.29;100.00;101686.34;5136267;28;20446;-87
2021/03/10 10:14:29;;;;;;;18.77;9.35;;;;;;;8.41;100.00;101683.59;5123793;28;20516;-87
2021/03/10 10:17:00;;;;;;;25.67;10.35;;;;;;;8.47;100.00;101688.41;5142144;28;20027;-87
2021/03/10 10:20:24;;;;;;;;;;;;;;;;;;;;;
2021/03/10 10:23:04;;;;;;;25.08;9.65;;;;;;;8.52;100.00;101684.38;5128637;28;20043;-87
2021/03/10 10:25:34;;;;;;;19.55;10.02;;;;;;;8.64;100.00;101678.97;5141932;28;20363;-87
2021/03/10 10:28:30;;;;;;;18.33;9.60;;;;;;;8.78;100.00;101675.91;5156724;28;20401;-87
2021/03/10 10:31:25;;;;;;;20.98;9.02;;;;;;;8.79;100.00;101681.13;5134220;28;20022;-87
2021/03/10 10:33:58;;;;;;;21.63;10.27;;;;;;;8.98;100.00;101679.50;5144458;28;20027;-87
2021/03/10 10:36:28;;;;;;;24.17;11.02;;;;;;;9.11;100.00;101673.91;5140952;28;20037;-87
2021/03/10 10:39:13;;;;;;;23.38;10.73;;;;;;;9.23;100.00;101659.44;5146541;28;20030;-87
2021/03/10 10:41:47;;;;;;;25.73;11.75;;;;;;;9.26;100.00;101661.84;5145239;28;20026;-87
2021/03/10 10:44:17;;;;;;;18.92;11.15;;;;;;;9.33;100.00;101654.94;5128754;28;20030;-87
2021/03/10 10:46:48;;;;;;;23.92;11.63;;;;;;;9.41;100.00;101639.03;5143782;28;20396;-87
2021/03/10 10:49:37;;;;;;;21.92;12.02;;;;;;;9.46;100.00;101635.94;5139951;28;20023;-87
2021/03/10 10:52:11;;;;;;;27.95;13.52;;;;;;;9.36;100.00;101629.72;5133847;28;20030;-88
2021/03/10 10:54:41;;;;;;;24.27;12.57;;;;;;;9.47;100.00;101634.94;5145936;28;20041;-87
2021/03/10 10:57:12;;;;;;;25.40;13.48;;;;;;;9.56;100.00;101629.59;5144840;28;20027;-87
2021/03/10 10:59:43;;;;;;;28.67;14.23;;;;;;;9.56;100.00;101629.59;5144684;28;20025;-87
2021/03/10 11:02:15;;;;;;;30.38;14.50;;;;;;;9.81;100.00;101621.97;5143240;28;20113;-85
2021/03/10 11:04:48;;;;;;;29.88;15.30;;;;;;;9.89;100.00;101622.13;5144993;28;20417;-85
2021/03/10 11:07:19;;;;;;;32.30;16.02;;;;;;;10.17;100.00;101608.78;5140076;28;20046;-85
2021/03/10 11:09:49;;;;;;;28.38;14.32;;;;;;;10.43;100.00;101611.72;5144660;28;20031;-86
2021/03/10 11:12:22;;;;;;;30.92;15.20;;;;;;;10.40;100.00;101612.84;5144140;28;20030;-85
2021/03/10 11:14:53;;;;;;;31.92;14.43;;;;;;;10.41;100.00;101608.34;5144616;28;20110;-86
2021/03/10 11:17:26;;;;;;;34.60;15.43;;;;;;;10.61;100.00;101601.91;5159823;28;20122;-86
2021/03/10 11:19:56;;;;;;;30.38;15.07;;;;;;;10.66;100.00;101594.25;5149273;28;20058;-85
2021/03/10 11:22:27;;;;;;;27.77;14.65;;;;;;;10.67;100.00;101592.41;5139157;28;20129;-85
2021/03/10 11:24:57;;;;;;;31.25;16.38;;;;;;;10.60;100.00;101574.22;5137083;28;20027;-85
2021/03/10 11:27:30;;;;;;;28.77;14.68;;;;;;;10.87;100.00;101570.69;5142386;28;20343;-85
2021/03/10 11:30:01;;;;;;;29.98;14.88;;;;;;;10.81;100.00;101573.13;5159539;28;20023;-88
2021/03/10 11:36:38;;;;;;;28.25;14.70;;;;;;;11.10;100.00;101551.47;5093550;28;20043;-87
2021/03/10 11:39:08;;;;;;;27.92;13.82;;;;;;;11.34;100.00;101538.25;5137755;28;20122;-86
2021/03/10 11:41:48;;;;;;;28.75;13.13;;;;;;;11.43;93.32;101536.47;5139174;28;20085;-86